Terminal Aerodrome Forecast
Issued by NWS

Home | Current Version | Previous Version | Text Only | Print | Product List | Glossary On
Versions: 1 2 3 4 5 6 7 8 9 10 11 12 13 14 15
963
FTUS46 KPDT 282320
TAFDLS
TAF
KDLS 282320Z 2900/2924 33010KT P6SM SCT060 OVC080
     FM290400 30007KT P6SM VCSH SCT050 OVC070
     FM290800 30005KT P6SM -RA SCT040 OVC060
     FM291100 VRB03KT 6SM -RA BR BKN035 OVC050
     FM292000 31008KT P6SM VCSH SCT035 OVC050=

USA.gov is the U.S. government's official web portal to all federal, state and local government web resources and services.